createdAt,value
2022-09-30T00:01:03.486Z,78.65
2022-09-30T00:04:11.191Z,78.72
2022-09-30T00:07:17.982Z,78.67
2022-09-30T00:10:26.458Z,78.73
2022-09-30T00:13:34.032Z,78.71
2022-09-30T00:16:40.633Z,78.82
2022-09-30T00:19:47.279Z,78.99
2022-09-30T00:22:53.004Z,78.83
2022-09-30T00:26:06.515Z,78.69
2022-09-30T00:29:13.489Z,78.83
2022-09-30T00:32:20.062Z,78.91
2022-09-30T00:35:25.802Z,79.43
2022-09-30T00:38:32.435Z,79.52
2022-09-30T00:41:43.703Z,79.89
2022-09-30T00:44:57.310Z,79.75
2022-09-30T00:48:10.324Z,79.57
2022-09-30T00:51:16.901Z,79.32
2022-09-30T00:54:27.072Z,78.96
2022-09-30T00:57:37.455Z,79.51
2022-09-30T01:00:44.204Z,79.17
2022-09-30T01:03:55.189Z,79.13
2022-09-30T01:07:03.066Z,78.96
2022-09-30T01:10:10.753Z,78.73
2022-09-30T01:13:21.182Z,78.77
2022-09-30T01:16:47.378Z,79.03
2022-09-30T01:20:27.264Z,78.74
2022-09-30T01:24:08.348Z,79.13
2022-09-30T01:27:25.953Z,79.46
2022-09-30T01:30:52.464Z,79.31
2022-09-30T01:34:06.123Z,78.84
2022-09-30T01:37:20.822Z,79.34
2022-09-30T01:40:31.813Z,79.22
2022-09-30T01:43:46.335Z,79.21
2022-09-30T01:47:03.377Z,78.71
2022-09-30T01:50:18.105Z,78.88
2022-09-30T01:53:30.692Z,79.02
2022-09-30T01:56:44.366Z,79.37
2022-09-30T01:59:57.571Z,79.18
2022-09-30T02:03:11.152Z,79.11
2022-09-30T02:06:23.607Z,79.59
2022-09-30T02:09:36.266Z,79.27
2022-09-30T02:12:48.747Z,79.51
2022-09-30T02:16:01.041Z,79.43
2022-09-30T02:19:20.638Z,79.60
2022-09-30T02:22:36.369Z,79.38
2022-09-30T02:25:47.347Z,79.50
2022-09-30T02:29:03.925Z,79.39
2022-09-30T02:32:18.734Z,79.83
2022-09-30T02:35:33.082Z,79.78
2022-09-30T02:38:49.183Z,79.85
2022-09-30T02:41:59.092Z,79.47
2022-09-30T02:45:11.897Z,79.98
2022-09-30T02:48:27.971Z,79.99
2022-09-30T02:51:44.006Z,79.73
2022-09-30T02:54:56.234Z,79.57
2022-09-30T02:58:12.075Z,79.72
2022-09-30T03:01:19.914Z,79.83
2022-09-30T03:04:28.923Z,79.61
2022-09-30T03:07:37.661Z,79.86
2022-09-30T03:10:44.745Z,79.84
2022-09-30T03:14:26.717Z,79.37
2022-09-30T03:17:47.116Z,79.12
2022-09-30T03:21:07.275Z,79.97
2022-09-30T03:24:54.115Z,79.55
2022-09-30T03:28:15.244Z,80.16
2022-09-30T03:31:28.898Z,79.86
2022-09-30T03:34:47.832Z,80.22
2022-09-30T03:38:03.954Z,80.15
2022-09-30T03:41:27.639Z,79.72
2022-09-30T03:44:45.817Z,80.09
2022-09-30T03:47:56.447Z,80.08
2022-09-30T03:51:03.822Z,80.16
2022-09-30T03:54:12.726Z,80.01
2022-09-30T03:57:22.077Z,80.03
2022-09-30T04:00:27.748Z,80.26
2022-09-30T04:03:35.712Z,80.26
2022-09-30T04:06:41.528Z,80.15
2022-09-30T04:09:47.975Z,80.51
2022-09-30T04:12:59.609Z,80.21
2022-09-30T04:16:07.171Z,80.41
2022-09-30T04:19:12.787Z,80.51
2022-09-30T04:22:21.271Z,80.19
2022-09-30T04:25:30.461Z,80.56
2022-09-30T04:28:39.800Z,80.23
2022-09-30T04:31:45.821Z,80.77
2022-09-30T04:34:53.692Z,80.57
2022-09-30T04:37:59.238Z,80.59
2022-09-30T04:41:08.429Z,80.61
2022-09-30T04:44:16.865Z,80.75
2022-09-30T04:47:25.731Z,81.33
2022-09-30T04:50:31.407Z,81.57
2022-09-30T04:53:38.792Z,81.42
2022-09-30T04:56:44.469Z,81.69
2022-09-30T04:59:53.924Z,81.74
2022-09-30T05:02:59.497Z,81.40
2022-09-30T05:06:08.219Z,81.26
2022-09-30T05:09:13.972Z,81.32
2022-09-30T05:12:20.518Z,81.77
2022-09-30T05:15:29.430Z,81.40
2022-09-30T05:18:36.700Z,81.43
2022-09-30T05:21:45.054Z,81.36
2022-09-30T05:24:51.892Z,81.00
2022-09-30T05:27:57.700Z,81.11
2022-09-30T05:31:07.926Z,81.15
2022-09-30T05:34:16.886Z,81.48
2022-09-30T05:37:23.398Z,81.19
2022-09-30T05:40:29.293Z,80.78
2022-09-30T05:43:35.773Z,80.73
2022-09-30T05:46:45.713Z,80.98
2022-09-30T05:49:55.979Z,80.79
2022-09-30T05:53:03.557Z,81.09
2022-09-30T05:56:11.146Z,81.06
2022-09-30T05:59:16.676Z,81.30
2022-09-30T06:02:25.937Z,81.43
2022-09-30T06:05:31.545Z,81.16
2022-09-30T06:08:38.207Z,81.38
2022-09-30T06:11:43.815Z,81.14
2022-09-30T06:14:50.307Z,81.44
2022-09-30T06:17:59.423Z,81.23
2022-09-30T06:21:07.941Z,82.00
2022-09-30T06:24:14.896Z,81.54
2022-09-30T06:27:22.295Z,82.21
2022-09-30T06:30:32.877Z,81.63
2022-09-30T06:33:44.433Z,81.79
2022-09-30T06:36:49.996Z,81.43
2022-09-30T06:39:56.631Z,82.05
2022-09-30T06:43:03.211Z,82.14
2022-09-30T06:46:17.638Z,81.58
2022-09-30T06:49:42.143Z,81.63
2022-09-30T06:52:52.320Z,81.15
2022-09-30T06:56:03.021Z,81.22
2022-09-30T06:59:09.792Z,80.93
2022-09-30T07:02:15.701Z,81.24
2022-09-30T07:05:25.954Z,81.62
2022-09-30T07:08:33.593Z,81.88
2022-09-30T07:11:41.152Z,81.79
2022-09-30T07:14:48.064Z,81.03
2022-09-30T07:17:56.803Z,81.72
2022-09-30T07:21:06.295Z,81.42
2022-09-30T07:24:12.921Z,81.93
2022-09-30T07:27:19.326Z,82.11
2022-09-30T07:30:27.457Z,82.18
2022-09-30T07:33:33.847Z,81.72
2022-09-30T07:36:43.934Z,81.64
2022-09-30T07:39:51.294Z,81.93
2022-09-30T07:42:57.977Z,81.37
2022-09-30T07:46:06.774Z,81.56
2022-09-30T07:49:25.035Z,81.31
2022-09-30T07:52:33.812Z,81.64
2022-09-30T07:55:40.325Z,81.84
2022-09-30T07:58:46.801Z,81.65
2022-09-30T08:01:54.029Z,81.32
2022-09-30T08:05:00.001Z,81.62
2022-09-30T08:08:11.305Z,81.53
2022-09-30T08:11:17.623Z,81.11
2022-09-30T08:14:26.356Z,81.30
2022-09-30T08:17:31.997Z,81.77
2022-09-30T08:20:38.470Z,81.48
2022-09-30T08:23:46.990Z,80.93
2022-09-30T08:26:53.857Z,80.70
2022-09-30T08:30:04.196Z,80.93
2022-09-30T08:33:11.330Z,81.12
2022-09-30T08:36:18.892Z,80.36
2022-09-30T08:39:28.311Z,81.05
2022-09-30T08:42:52.987Z,80.57
2022-09-30T08:46:12.071Z,80.74
2022-09-30T08:49:42.789Z,80.14
2022-09-30T08:52:51.849Z,80.27
2022-09-30T08:56:03.156Z,80.22
2022-09-30T08:59:17.978Z,80.19
2022-09-30T09:02:27.873Z,80.09
2022-09-30T09:05:49.963Z,80.16
2022-09-30T09:09:19.416Z,80.54
2022-09-30T09:12:40.433Z,80.08
2022-09-30T09:15:57.289Z,80.43
2022-09-30T09:19:11.647Z,79.99
2022-09-30T09:22:19.153Z,80.18
2022-09-30T09:25:31.230Z,80.16
2022-09-30T09:28:43.914Z,80.47
2022-09-30T09:31:51.570Z,80.11
2022-09-30T09:35:03.431Z,80.95
2022-09-30T09:38:31.932Z,79.63
2022-09-30T09:41:47.039Z,80.26
2022-09-30T09:45:03.373Z,80.79
2022-09-30T09:48:13.690Z,80.48
2022-09-30T09:51:30.039Z,79.65
2022-09-30T09:54:38.159Z,79.68
2022-09-30T09:57:44.669Z,79.64
2022-09-30T10:01:31.450Z,79.25
2022-09-30T10:04:42.052Z,79.92
2022-09-30T10:07:48.004Z,79.50
2022-09-30T10:10:56.395Z,79.79
2022-09-30T10:14:03.855Z,79.47
2022-09-30T10:17:23.086Z,78.67
2022-09-30T10:20:34.724Z,78.76
2022-09-30T10:23:44.119Z,79.14
2022-09-30T10:26:49.812Z,78.72
2022-09-30T10:29:56.319Z,78.89
2022-09-30T10:33:06.829Z,78.34
2022-09-30T10:36:17.611Z,77.84
2022-09-30T10:39:27.208Z,77.97
2022-09-30T10:42:36.510Z,78.21
2022-09-30T10:45:42.432Z,78.63
2022-09-30T10:48:54.009Z,78.33
2022-09-30T10:52:00.713Z,78.17
2022-09-30T10:55:14.822Z,78.63
2022-09-30T10:58:28.796Z,78.67
2022-09-30T11:01:40.338Z,78.78
2022-09-30T11:04:54.119Z,78.01
2022-09-30T11:08:06.023Z,78.32
2022-09-30T11:11:16.941Z,78.58
2022-09-30T11:14:34.152Z,78.42
2022-09-30T11:17:47.380Z,78.80
2022-09-30T11:21:00.667Z,79.47
2022-09-30T11:24:21.377Z,78.95
2022-09-30T11:27:40.664Z,78.84
2022-09-30T11:30:57.538Z,78.82
2022-09-30T11:34:17.560Z,78.75
2022-09-30T11:37:38.339Z,78.22
2022-09-30T11:40:54.472Z,79.33
2022-09-30T11:44:09.716Z,79.31
2022-09-30T11:47:44.363Z,77.92
2022-09-30T11:51:03.382Z,79.25
2022-09-30T11:54:26.097Z,79.16
2022-09-30T12:01:24.298Z,78.63
2022-09-30T12:04:35.431Z,79.06
2022-09-30T12:07:45.334Z,78.95
2022-09-30T12:10:57.955Z,78.85
2022-09-30T12:14:09.293Z,77.36
2022-09-30T12:17:24.906Z,79.00
2022-09-30T12:20:35.147Z,79.54
2022-09-30T12:23:47.492Z,79.71
2022-09-30T12:26:56.454Z,79.46
2022-09-30T12:30:22.642Z,79.41
2022-09-30T12:33:45.514Z,78.92
2022-09-30T12:37:08.657Z,78.54
2022-09-30T12:40:43.140Z,78.08
2022-09-30T12:44:42.603Z,78.33
2022-09-30T12:47:51.779Z,78.53
2022-09-30T12:51:01.068Z,78.02
2022-09-30T12:54:16.778Z,78.34
2022-09-30T12:57:27.927Z,78.07
2022-09-30T13:00:37.986Z,78.45
2022-09-30T13:03:51.416Z,78.30
2022-09-30T13:07:20.272Z,78.36
2022-09-30T13:10:31.587Z,78.42
2022-09-30T13:13:37.667Z,79.17
2022-09-30T13:17:21.668Z,78.15
2022-09-30T13:20:56.795Z,78.43
2022-09-30T13:24:05.774Z,77.98
2022-09-30T13:27:16.552Z,77.95
2022-09-30T13:30:40.506Z,79.15
2022-09-30T13:33:49.207Z,79.20
2022-09-30T13:37:06.436Z,77.86
2022-09-30T13:40:43.338Z,78.30
2022-09-30T13:44:03.134Z,78.28
2022-09-30T13:47:25.223Z,78.96
2022-09-30T13:50:35.988Z,79.17
2022-09-30T13:53:49.043Z,79.12
2022-09-30T13:56:57.942Z,79.12
2022-09-30T14:00:10.395Z,78.56
2022-09-30T14:03:51.283Z,78.60
2022-09-30T14:07:10.629Z,79.24
2022-09-30T14:10:37.792Z,79.36
2022-09-30T14:13:54.370Z,78.52
2022-09-30T14:17:16.937Z,78.89
2022-09-30T14:20:39.031Z,79.44
2022-09-30T14:23:45.527Z,78.80
2022-09-30T14:27:31.155Z,79.07
2022-09-30T14:30:45.330Z,78.56
2022-09-30T14:33:55.020Z,78.32
2022-09-30T14:37:03.157Z,78.62
2022-09-30T14:40:14.503Z,78.78
2022-09-30T14:43:35.918Z,78.56
2022-09-30T14:46:48.141Z,78.37
2022-09-30T14:49:54.898Z,77.93
2022-09-30T14:53:03.628Z,77.95
2022-09-30T14:56:22.668Z,78.29
2022-09-30T14:59:34.696Z,78.41
2022-09-30T15:02:47.658Z,77.58
2022-09-30T15:05:53.492Z,77.57
2022-09-30T15:09:07.022Z,77.81
2022-09-30T15:12:16.294Z,77.78
2022-09-30T15:15:40.869Z,77.89
2022-09-30T15:18:49.139Z,77.81
2022-09-30T15:21:58.852Z,77.87
2022-09-30T15:25:06.864Z,77.95
2022-09-30T15:28:13.577Z,78.11
2022-09-30T15:31:27.808Z,78.35
2022-09-30T15:34:34.521Z,78.35
2022-09-30T15:37:40.618Z,78.87
2022-09-30T15:40:53.454Z,79.04
2022-09-30T15:44:00.656Z,78.81
2022-09-30T15:47:12.916Z,79.52
2022-09-30T15:50:40.562Z,79.01
2022-09-30T15:53:51.544Z,79.31
2022-09-30T15:56:57.467Z,79.43
2022-09-30T16:00:08.276Z,79.63
2022-09-30T16:03:30.373Z,79.68
2022-09-30T16:06:45.652Z,79.68
2022-09-30T16:09:51.534Z,80.62
2022-09-30T16:12:58.116Z,80.27
2022-09-30T16:16:06.100Z,80.08
2022-09-30T16:19:21.478Z,80.40
2022-09-30T16:22:53.604Z,80.55
2022-09-30T16:26:28.665Z,81.06
2022-09-30T16:29:34.975Z,81.02
2022-09-30T16:32:44.718Z,81.14
2022-09-30T16:35:53.117Z,81.02
2022-09-30T16:38:59.834Z,80.83
2022-09-30T16:42:07.422Z,81.25
2022-09-30T16:45:16.323Z,81.71
2022-09-30T16:48:25.287Z,81.69
2022-09-30T16:51:34.616Z,81.72
2022-09-30T16:54:40.662Z,81.74
2022-09-30T16:57:47.160Z,81.68
2022-09-30T17:00:52.860Z,81.51
2022-09-30T17:04:00.821Z,81.95
2022-09-30T17:07:14.706Z,81.81
2022-09-30T17:10:25.107Z,81.55
2022-09-30T17:13:30.711Z,82.82
2022-09-30T17:16:37.688Z,82.40
2022-09-30T17:19:43.410Z,82.07
2022-09-30T17:22:53.283Z,82.71
2022-09-30T17:25:58.949Z,82.68
2022-09-30T17:29:30.979Z,82.59
2022-09-30T17:32:32.957Z,82.62
2022-09-30T17:35:40.576Z,82.26
2022-09-30T17:38:57.197Z,82.21
2022-09-30T17:42:19.563Z,81.56
2022-09-30T17:45:26.061Z,81.56
2022-09-30T17:48:33.083Z,81.69
2022-09-30T17:51:39.452Z,81.32
2022-09-30T17:54:52.447Z,81.42
2022-09-30T17:57:58.828Z,81.59
2022-09-30T18:01:09.745Z,81.29
2022-09-30T18:04:16.158Z,81.47
2022-09-30T18:07:27.411Z,81.74
2022-09-30T18:10:39.803Z,81.28
2022-09-30T18:14:18.373Z,81.54
2022-09-30T18:17:25.570Z,81.30
2022-09-30T18:20:32.487Z,80.96
2022-09-30T18:23:38.496Z,81.18
2022-09-30T18:26:47.967Z,81.24
2022-09-30T18:29:53.680Z,81.38
2022-09-30T18:33:00.312Z,81.35
2022-09-30T18:36:08.760Z,81.15
2022-09-30T18:39:15.317Z,81.00
2022-09-30T18:42:23.763Z,81.25
2022-09-30T18:45:31.801Z,81.25
2022-09-30T18:48:37.952Z,81.32
2022-09-30T18:51:44.503Z,81.94
2022-09-30T18:54:53.412Z,82.21
2022-09-30T18:58:03.410Z,81.74
2022-09-30T19:01:09.782Z,82.47
2022-09-30T19:04:17.056Z,82.45
2022-09-30T19:07:24.424Z,82.58
2022-09-30T19:10:30.972Z,82.85
2022-09-30T19:13:40.117Z,82.96
2022-09-30T19:16:46.616Z,83.03
2022-09-30T19:19:52.824Z,83.19
2022-09-30T19:22:59.395Z,83.29
2022-09-30T19:26:07.918Z,83.16
2022-09-30T19:29:18.607Z,83.38
2022-09-30T19:32:24.640Z,83.55
2022-09-30T19:35:39.547Z,83.93
2022-09-30T19:38:49.806Z,83.56
2022-09-30T19:42:01.628Z,83.51
2022-09-30T19:45:13.075Z,83.43
2022-09-30T19:48:20.435Z,83.69
2022-09-30T19:51:28.296Z,83.58
2022-09-30T19:54:41.237Z,83.19
2022-09-30T19:57:47.765Z,83.50
2022-09-30T20:00:59.351Z,83.38
2022-09-30T20:04:08.387Z,83.13
2022-09-30T20:07:16.333Z,83.29
2022-09-30T20:10:22.737Z,83.32
2022-09-30T20:13:30.284Z,83.41
2022-09-30T20:16:35.956Z,83.23
2022-09-30T20:19:42.918Z,83.07
2022-09-30T20:22:48.572Z,83.30
2022-09-30T20:25:55.480Z,83.44
2022-09-30T20:29:03.108Z,83.63
2022-09-30T20:32:12.636Z,83.30
2022-09-30T20:35:18.328Z,83.34
2022-09-30T20:38:25.120Z,83.60
2022-09-30T20:41:36.044Z,83.29
2022-09-30T20:44:45.382Z,83.72
2022-09-30T20:47:54.547Z,83.61
2022-09-30T20:51:00.991Z,83.30
2022-09-30T20:54:07.383Z,83.67
2022-09-30T20:57:13.831Z,83.24
2022-09-30T21:00:19.480Z,82.74
2022-09-30T21:03:32.220Z,83.16
2022-09-30T21:06:37.828Z,83.34
2022-09-30T21:09:44.267Z,83.06
2022-09-30T21:12:50.057Z,82.74
2022-09-30T21:16:04.234Z,82.87
2022-09-30T21:19:13.233Z,82.73
2022-09-30T21:22:20.263Z,83.46
2022-09-30T21:25:25.872Z,83.28
2022-09-30T21:28:33.378Z,84.02
2022-09-30T21:31:39.003Z,83.91
2022-09-30T21:34:48.244Z,84.24
2022-09-30T21:37:54.061Z,84.60
2022-09-30T21:41:03.347Z,85.09
2022-09-30T21:44:09.334Z,85.34
2022-09-30T21:47:15.759Z,85.51
2022-09-30T21:50:24.096Z,84.76
2022-09-30T21:53:32.161Z,84.97
2022-09-30T21:56:37.737Z,85.56
2022-09-30T21:59:49.744Z,85.17
2022-09-30T22:02:56.022Z,85.39
2022-09-30T22:06:07.558Z,85.56
2022-09-30T22:09:13.581Z,85.67
2022-09-30T22:12:20.414Z,85.34
2022-09-30T22:15:26.204Z,85.79
2022-09-30T22:18:33.154Z,85.68
2022-09-30T22:21:41.561Z,85.88
2022-09-30T22:24:48.364Z,85.89
2022-09-30T22:27:54.242Z,85.81
2022-09-30T22:31:00.715Z,85.24
2022-09-30T22:34:25.040Z,84.95
2022-09-30T22:38:01.270Z,84.99
2022-09-30T22:41:07.231Z,85.14
2022-09-30T22:44:16.732Z,84.99
2022-09-30T22:47:22.353Z,84.70
2022-09-30T22:50:29.651Z,85.14
2022-09-30T22:53:38.900Z,84.43
2022-09-30T22:56:45.324Z,84.76
2022-09-30T22:59:52.889Z,84.57
2022-09-30T23:02:59.343Z,84.84
2022-09-30T23:06:07.149Z,85.26
2022-09-30T23:09:16.498Z,84.89
2022-09-30T23:12:22.136Z,84.65
2022-09-30T23:15:28.660Z,84.13
2022-09-30T23:18:36.025Z,84.12
2022-09-30T23:21:43.085Z,83.82
2022-09-30T23:24:51.626Z,84.15
2022-09-30T23:27:58.384Z,84.13
2022-09-30T23:31:06.600Z,83.78
2022-09-30T23:34:13.379Z,84.00
2022-09-30T23:37:19.488Z,84.19
2022-09-30T23:40:28.724Z,84.83
2022-09-30T23:43:37.187Z,84.84
2022-09-30T23:47:04.243Z,84.50
2022-09-30T23:50:11.934Z,84.59
2022-09-30T23:53:18.808Z,84.73
2022-09-30T23:56:27.237Z,84.57
2022-09-30T23:59:34.987Z,84.39
